Accueil
METAR-TAF:

METAR-TAF

Aéroports :

Aviano Air Base

Aviano, Italie

latitude: 46-02N, longitude: 012-36E, altitude: 128 m

Observation

Le bulletin a été fait il y a 1 heure et 18 minutes, à 06:55 UTC
Vent 3 kt de est/nord-est
Température 9°C
Humidité 81%
Pression 1028 hPa
Visibilité 10 km ou plus
Nuages fragmentés à une hauteur de 4500 ft

METAR: LIPA 160655Z 06003KT 9999 BKN045 09/06 Q1028 RMK BKN VIS MIN 9999 WIND THR05 05002KT WIND THR23 15002KT A3036 BLU

Heure: 09:13 (08:13 UTC)

Prévision

Le bulletin a été fait il y a 3 heures et 13 minutes, à 05:00 UTC
Prévision valable du 16 à 06 UTC au 16 à 15 UTC
Vent 6 kt de nord/nord-est
Visibilité 10 km ou plus
Nuages épars à une hauteur de 4000 ft

TAF: LIPA 160500Z 1606/1615 03006KT 9999 SCT040

Observations et prévisions météorologiques de plus de 4000 aéroports (messages METAR et TAF).

Les stations disponibles sont représentées par des disques jaunes et rouges sur la carte.

Passer la souris dessus pour voir le nom de la station.

Cliquer dessus pour voir les observations et prévisions météorologiques.

Pour changer de carte: cliquez sur les boutons verts avec une croix noire pour zoomer, sur le bouton vert avec un tiret pour effectuer un zoom arrière, ou sur les flèches vertes pour les cartes adjacentes.


METAR-TAF: